Lenora, Kansas
Current Conditions -  °F | °C
As of 12:53 PM on Saturday 25 Oct 2014 (Local Time) from KHLC Reporting Station
Clear Clear  
Wind Chill: 75°   Ceiling: Unl
Heat Index: 75°   Visibility: 10mi
Dew Point: 48°   Wind: 6mph
Humidity: 38%   Direction: 140°SE
Pressure: 30.08"   Gusts: NA
Location:  39.61°N, 100°W
Report Text: KHLC 251753Z AUTO 14005KT 10SM CLR 24/09 A3008 RMK AO2 SLP176 T02390089 10239 20056 58005
Loading
Personal Weather Stations






























Interactive Weather Map New forecast layout! Learn more

10-Day Weather Forecast

Advertisements
Track Severe Weather on mobile